Time;durP1;ratioP1;P1;durP2;ratioP2;P2;SDS_P1;SDS_P2;PMS_P1;PMS_P2;Temp;Humidity;BMP_temperature;BMP_pressure;BME280_temperature;BME280_humidity;BME280_pressure;Samples;Min_cycle;Max_cycle;Signal;HPM_P1;HPM_P2
2023/10/16 00:00:29;;;;;;;;;;;;;;;8.66;64.74;100762.75;5475396;32;34094;-81
2023/10/16 00:03:23;;;;;;;;;;;;;;;8.72;64.85;100771.38;5481410;32;34294;-81
2023/10/16 00:06:26;;;;;;;;;;;;;;;9.18;63.80;100777.09;5498984;32;34485;-81
2023/10/16 00:09:29;;;;;;;;;;;;;;;9.21;64.03;100786.69;5499415;32;35329;-82
2023/10/16 00:12:31;;;;;;;;;;;;;;;8.89;64.47;100785.75;5508259;32;35006;-82
2023/10/16 00:15:34;;;;;;;;;;;;;;;8.47;65.86;100806.00;5502074;32;34225;-80
2023/10/16 00:18:41;;;;;;;;;;;;;;;9.48;63.61;100795.53;5490450;32;33916;-82
2023/10/16 00:21:43;;;;;;;;;;;;;;;9.29;63.99;100789.09;5485271;32;34895;-81
2023/10/16 00:24:46;;;;;;;;;;;;;;;9.66;62.59;100813.41;5502782;32;34307;-83
2023/10/16 00:27:48;;;;;;;;;;;;;;;9.26;63.13;100811.00;5490834;32;34921;-79
2023/10/16 00:30:51;;;;;;;;;;;;;;;9.47;62.26;100807.81;5500289;32;35167;-79
2023/10/16 00:33:53;;;;;;;;;;;;;;;9.14;62.71;100817.41;5504732;32;34200;-81
2023/10/16 00:36:56;;;;;;;;;;;;;;;9.40;62.39;100822.00;5506145;32;34208;-80
2023/10/16 00:39:58;;;;;;;;;;;;;;;9.10;61.97;100818.41;5492289;32;34543;-81
2023/10/16 00:43:06;;;;;;;;;;;;;;;9.01;62.26;100826.50;5493015;32;35323;-89
2023/10/16 00:46:09;;;;;;;;;;;;;;;9.19;61.63;100820.78;5489381;32;32450;-82
2023/10/16 00:49:14;;;;;;;;;;;;;;;9.08;61.89;100816.72;5504945;32;34050;-82
2023/10/16 00:52:16;;;;;;;;;;;;;;;9.25;61.28;100816.28;5493301;32;34085;-80
2023/10/16 00:55:20;;;;;;;;;;;;;;;8.44;64.19;100831.41;5477623;32;33231;-81
2023/10/16 00:58:22;;;;;;;;;;;;;;;8.87;63.08;100820.75;5506024;32;35476;-80
2023/10/16 01:01:24;;;;;;;;;;;;;;;8.58;64.10;100821.50;5505625;32;35410;-82
2023/10/16 01:04:29;;;;;;;;;;;;;;;8.17;65.46;100819.78;5482894;32;35291;-80
2023/10/16 01:07:31;;;;;;;;;;;;;;;8.59;64.50;100823.22;5490172;32;34171;-80
2023/10/16 01:10:34;;;;;;;;;;;;;;;9.01;62.97;100809.91;5506377;32;35480;-81
2023/10/16 01:13:38;;;;;;;;;;;;;;;8.92;63.50;100811.88;5499619;32;35471;-82
2023/10/16 01:16:40;;;;;;;;;;;;;;;8.52;64.41;100816.41;5504180;32;35286;-81
2023/10/16 01:19:47;;;;;;;;;;;;;;;8.97;63.70;100813.53;5486525;32;34189;-81
2023/10/16 01:22:52;;;;;;;;;;;;;;;9.58;61.73;100812.72;5494644;32;34177;-82
2023/10/16 01:25:54;;;;;;;;;;;;;;;8.82;63.25;100818.28;5508428;32;34242;-81
2023/10/16 01:28:57;;;;;;;;;;;;;;;8.94;63.96;100823.19;5475161;32;34208;-80
2023/10/16 01:31:59;;;;;;;;;;;;;;;8.79;63.87;100836.69;5503912;32;34152;-84
2023/10/16 01:35:03;;;;;;;;;;;;;;;8.95;63.77;100850.25;5506150;32;35341;-79
2023/10/16 01:38:24;;;;;;;;;;;;;;;9.01;63.30;100846.63;5503677;32;35304;-81
2023/10/16 01:41:27;;;;;;;;;;;;;;;9.22;62.77;100846.94;5505348;32;34300;-79
2023/10/16 01:44:29;;;;;;;;;;;;;;;9.38;61.58;100855.25;5506252;32;35156;-81
2023/10/16 01:47:34;;;;;;;;;;;;;;;8.83;63.53;100854.06;5489731;32;34197;-83
2023/10/16 01:50:39;;;;;;;;;;;;;;;8.85;63.15;100864.50;5503442;32;35432;-81
2023/10/16 01:53:42;;;;;;;;;;;;;;;8.60;63.00;100859.00;5506002;32;34321;-83
2023/10/16 01:56:45;;;;;;;;;;;;;;;8.87;62.92;100852.22;5505967;32;35816;-80
2023/10/16 01:59:47;;;;;;;;;;;;;;;8.79;62.83;100856.78;5487244;32;34151;-79
2023/10/16 02:02:50;;;;;;;;;;;;;;;8.40;62.90;100855.06;5487625;32;35230;-81
2023/10/16 02:05:53;;;;;;;;;;;;;;;8.62;62.09;100858.03;5505540;32;35063;-81
2023/10/16 02:08:56;;;;;;;;;;;;;;;9.06;61.19;100856.09;5505517;32;34193;-80
2023/10/16 02:12:01;;;;;;;;;;;;;;;8.66;62.10;100867.56;5501234;32;34065;-83
2023/10/16 02:15:06;;;;;;;;;;;;;;;8.83;61.35;100868.94;5505888;32;34443;-81
2023/10/16 02:18:14;;;;;;;;;;;;;;;8.68;62.24;100871.00;5505597;32;34520;-87
2023/10/16 02:21:17;;;;;;;;;;;;;;;8.48;61.79;100875.84;5487796;32;33989;-82
2023/10/16 02:24:19;;;;;;;;;;;;;;;8.09;63.07;100881.03;5490178;32;35359;-80
2023/10/16 02:27:21;;;;;;;;;;;;;;;8.94;61.37;100885.25;5506547;32;34267;-84
2023/10/16 02:33:26;;;;;;;;;;;;;;;8.76;61.45;100883.06;5486289;32;34782;-80
2023/10/16 02:36:29;;;;;;;;;;;;;;;9.35;59.88;100872.88;5506653;32;34111;-80
2023/10/16 02:39:37;;;;;;;;;;;;;;;8.84;60.84;100866.28;5503171;32;34225;-79
2023/10/16 02:42:40;;;;;;;;;;;;;;;8.49;61.28;100874.94;5492440;32;34462;-81
2023/10/16 02:45:46;;;;;;;;;;;;;;;8.70;61.54;100888.47;5508926;32;35560;-80
2023/10/16 02:48:50;;;;;;;;;;;;;;;8.73;61.27;100899.72;5504924;32;34247;-84
2023/10/16 02:51:52;;;;;;;;;;;;;;;8.04;63.44;100893.34;5493775;32;35325;-81
2023/10/16 02:54:56;;;;;;;;;;;;;;;7.77;63.89;100879.06;5497083;32;34091;-83
2023/10/16 02:58:04;;;;;;;;;;;;;;;7.87;63.48;100880.63;5507085;32;35322;-79
2023/10/16 03:01:13;;;;;;;;;;;;;;;7.88;64.06;100891.94;5494665;32;35261;-80
2023/10/16 03:04:18;;;;;;;;;;;;;;;8.00;63.85;100886.47;5501927;32;34081;-82
2023/10/16 03:07:20;;;;;;;;;;;;;;;7.72;64.64;100887.87;5480612;32;35254;-80
2023/10/16 03:10:23;;;;;;;;;;;;;;;7.76;64.60;100887.81;5501634;32;34088;-80
2023/10/16 03:13:25;;;;;;;;;;;;;;;8.45;62.64;100877.69;5506865;32;34082;-79
2023/10/16 03:16:29;;;;;;;;;;;;;;;8.56;62.08;100875.66;5480821;32;34316;-80
2023/10/16 03:19:31;;;;;;;;;;;;;;;8.78;61.40;100887.38;5503639;32;34226;-81
2023/10/16 03:22:35;;;;;;;;;;;;;;;8.46;62.20;100887.25;5507526;32;35807;-80
2023/10/16 03:28:45;;;;;;;;;;;;;;;7.89;63.44;100888.44;5508797;32;34074;-77
2023/10/16 03:31:47;;;;;;;;;;;;;;;8.69;61.81;100895.44;5505237;32;34190;-83
2023/10/16 03:34:51;;;;;;;;;;;;;;;8.04;62.93;100901.19;5487030;32;34076;-84
2023/10/16 03:37:54;;;;;;;;;;;;;;;7.88;63.80;100898.03;5479628;32;35512;-81
2023/10/16 03:40:58;;;;;;;;;;;;;;;8.56;61.64;100905.34;5500136;32;34559;-80
2023/10/16 03:44:07;;;;;;;;;;;;;;;8.28;61.71;100901.59;5502728;32;34948;-81
2023/10/16 03:47:11;;;;;;;;;;;;;;;8.00;63.02;100911.78;5482107;32;34652;-80
2023/10/16 03:50:14;;;;;;;;;;;;;;;7.48;64.33;100916.25;5502883;32;33635;-79
2023/10/16 03:53:16;;;;;;;;;;;;;;;7.43;65.18;100920.69;5501926;32;35158;-82
2023/10/16 03:56:19;;;;;;;;;;;;;;;7.96;64.00;100900.50;5505265;32;34409;-90
2023/10/16 03:59:21;;;;;;;;;;;;;;;8.28;62.90;100904.19;5503571;32;35215;-83
2023/10/16 04:02:24;;;;;;;;;;;;;;;8.30;62.92;100905.03;5486400;32;34163;-81
2023/10/16 04:08:47;;;;;;;;;;;;;;;7.70;64.57;100898.37;5495325;32;34201;-82
2023/10/16 04:11:54;;;;;;;;;;;;;;;7.50;65.43;100898.75;5492365;32;34267;-82
2023/10/16 04:15:03;;;;;;;;;;;;;;;8.44;62.86;100903.03;5481043;32;33988;-80
2023/10/16 04:18:09;;;;;;;;;;;;;;;7.94;64.12;100893.59;5499101;32;35221;-83
2023/10/16 04:24:30;;;;;;;;;;;;;;;7.45;66.41;100904.97;5506180;32;34028;-82
2023/10/16 04:27:38;;;;;;;;;;;;;;;7.28;66.48;100916.59;5507297;32;34471;-81
2023/10/16 04:30:43;;;;;;;;;;;;;;;7.11;67.83;100904.69;5490352;32;34118;-80
2023/10/16 04:33:53;;;;;;;;;;;;;;;7.80;65.62;100893.84;5504984;32;35306;-80
2023/10/16 04:44:22;;;;;;;;;;;;;;;7.41;65.91;100898.94;5506853;32;34209;-87
2023/10/16 04:47:17;;;;;;;;;;;;;;;7.39;66.16;100910.31;5501897;32;34283;-85
2023/10/16 04:53:58;;;;;;;;;;;;;;;7.36;66.70;100908.63;5502912;32;33600;-80
2023/10/16 05:06:56;;;;;;;;;;;;;;;7.68;64.97;100915.03;5496937;32;34134;-81
2023/10/16 05:21:05;;;;;;;;;;;;;;;7.78;64.94;100938.34;5505250;32;34782;-81
2023/10/16 06:14:45;;;;;;;;;;;;;;;11.36;52.10;100963.25;5466852;32;35254;-86
2023/10/16 06:17:47;;;;;;;;;;;;;;;11.23;51.31;100967.19;5471104;32;35051;-83
2023/10/16 06:20:52;;;;;;;;;;;;;;;12.04;48.58;100967.06;5479019;32;34822;-82
2023/10/16 06:23:54;;;;;;;;;;;;;;;12.07;48.78;100959.06;5469696;32;34433;-81
2023/10/16 06:26:57;;;;;;;;;;;;;;;11.08;50.46;100973.81;5479025;32;33880;-86
2023/10/16 06:30:05;;;;;;;;;;;;;;;11.26;50.63;100970.56;5464190;32;35552;-83
2023/10/16 06:33:08;;;;;;;;;;;;;;;12.15;48.84;100985.97;5475965;32;34201;-84
2023/10/16 06:36:10;;;;;;;;;;;;;;;11.92;48.55;100985.03;5477326;32;34231;-86
2023/10/16 06:39:58;;;;;;;;;;;;;;;11.76;49.46;100993.47;5463331;32;33642;-86
2023/10/16 06:42:35;;;;;;;;;;;;;;;12.71;47.06;100991.78;5474628;32;34349;-85
2023/10/16 06:45:41;;;;;;;;;;;;;;;12.54;47.57;100993.34;5489256;32;34158;-87
2023/10/16 06:48:48;;;;;;;;;;;;;;;14.54;42.65;100991.16;5470970;32;34301;-87
2023/10/16 06:51:50;;;;;;;;;;;;;;;13.95;43.96;101002.59;5472531;32;34269;-87
2023/10/16 06:54:53;;;;;;;;;;;;;;;15.09;41.41;101000.97;5460216;32;34199;-83
2023/10/16 06:57:55;;;;;;;;;;;;;;;13.72;43.74;101026.50;5448597;32;35290;-81
2023/10/16 07:00:57;;;;;;;;;;;;;;;12.95;45.26;101023.44;5471196;32;34721;-83
2023/10/16 07:04:00;;;;;;;;;;;;;;;13.38;43.64;101034.94;5450789;32;34746;-83
2023/10/16 07:07:14;;;;;;;;;;;;;;;13.10;44.73;101024.59;5467154;32;36892;-80
2023/10/16 07:10:21;;;;;;;;;;;;;;;14.48;41.83;101025.81;5467841;32;34194;-84
2023/10/16 07:13:26;;;;;;;;;;;;;;;13.95;42.69;101020.25;5460951;32;35130;-84
2023/10/16 07:16:33;;;;;;;;;;;;;;;13.06;44.91;101028.28;5467829;32;35138;-80
2023/10/16 07:19:36;;;;;;;;;;;;;;;13.82;42.23;101031.31;5484227;32;35500;-80
2023/10/16 07:22:43;;;;;;;;;;;;;;;12.24;46.70;101043.66;5485908;32;36351;-82
2023/10/16 07:25:47;;;;;;;;;;;;;;;12.79;45.91;101043.37;5473611;32;35354;-80
2023/10/16 07:28:50;;;;;;;;;;;;;;;15.02;41.30;101031.31;5482552;32;34152;-80
2023/10/16 07:31:54;;;;;;;;;;;;;;;13.51;43.76;101047.59;5472422;32;34106;-80
2023/10/16 07:34:56;;;;;;;;;;;;;;;12.92;44.72;101049.91;5490527;32;34218;-81
2023/10/16 07:37:58;;;;;;;;;;;;;;;12.23;47.45;101051.59;5488870;32;34324;-79
2023/10/16 07:41:01;;;;;;;;;;;;;;;13.10;44.95;101043.94;5483950;32;34148;-81
2023/10/16 07:44:04;;;;;;;;;;;;;;;12.24;47.10;101054.19;5489535;32;35445;-80
2023/10/16 07:47:08;;;;;;;;;;;;;;;11.74;48.21;101043.56;5476687;32;34166;-79
2023/10/16 07:50:12;;;;;;;;;;;;;;;11.27;49.22;101042.47;5471789;32;33997;-79
2023/10/16 07:53:17;;;;;;;;;;;;;;;11.21;50.21;101046.19;5491561;32;35262;-78
2023/10/16 07:56:19;;;;;;;;;;;;;;;11.15;49.83;101056.88;5484390;32;34908;-78
2023/10/16 07:59:22;;;;;;;;;;;;;;;10.93;50.01;101066.31;5470935;32;34189;-83
2023/10/16 08:02:24;;;;;;;;;;;;;;;10.91;50.53;101062.88;5471677;32;33542;-80
2023/10/16 08:05:26;;;;;;;;;;;;;;;10.36;52.09;101072.31;5487889;32;34493;-83
2023/10/16 08:08:36;;;;;;;;;;;;;;;10.84;51.97;101075.34;5485760;32;33893;-82
2023/10/16 08:11:42;;;;;;;;;;;;;;;11.23;49.82;101073.28;5485976;32;34728;-79
2023/10/16 08:14:45;;;;;;;;;;;;;;;11.53;49.80;101068.84;5474286;32;34136;-80
2023/10/16 08:17:49;;;;;;;;;;;;;;;10.73;51.19;101073.03;5470906;32;34257;-81
2023/10/16 08:21:00;;;;;;;;;;;;;;;10.53;51.42;101067.47;5487745;32;32973;-83
2023/10/16 08:24:02;;;;;;;;;;;;;;;11.23;49.79;101072.44;5486433;32;36848;-78
2023/10/16 08:27:11;;;;;;;;;;;;;;;11.01;51.27;101075.72;5486305;32;34197;-82
2023/10/16 08:33:35;;;;;;;;;;;;;;;10.93;49.21;101087.38;5487102;32;33979;-82
2023/10/16 08:36:37;;;;;;;;;;;;;;;11.36;49.06;101084.31;5487532;32;34307;-80
2023/10/16 08:39:47;;;;;;;;;;;;;;;11.10;49.40;101077.22;5487886;32;35627;-81
2023/10/16 08:43:00;;;;;;;;;;;;;;;11.22;49.85;101074.22;5484536;32;33904;-81
2023/10/16 08:46:09;;;;;;;;;;;;;;;11.02;49.93;101077.44;5485962;32;34388;-83
2023/10/16 08:49:12;;;;;;;;;;;;;;;11.17;49.17;101070.00;5471291;32;34452;-81
2023/10/16 08:52:20;;;;;;;;;;;;;;;10.46;50.29;101065.94;5483675;32;33947;-83
2023/10/16 08:55:28;;;;;;;;;;;;;;;10.91;49.72;101074.25;5489251;32;33919;-83
2023/10/16 08:58:33;;;;;;;;;;;;;;;10.80;50.09;101073.72;5471313;32;34583;-79
2023/10/16 09:01:37;;;;;;;;;;;;;;;10.89;49.84;101062.09;5477900;32;35199;-83
2023/10/16 09:04:42;;;;;;;;;;;;;;;10.95;50.09;101069.75;5478487;32;34084;-81
2023/10/16 09:07:47;;;;;;;;;;;;;;;11.06;49.20;101086.09;5484545;32;35009;-80
2023/10/16 09:10:50;;;;;;;;;;;;;;;11.06;48.63;101088.72;5488194;32;36308;-77
2023/10/16 09:13:52;;;;;;;;;;;;;;;11.65;47.44;101078.09;5474806;32;34094;-80
2023/10/16 09:16:58;;;;;;;;;;;;;;;11.12;47.93;101093.81;5480638;32;33892;-84
2023/10/16 09:20:13;;;;;;;;;;;;;;;10.89;48.59;101076.09;5474907;32;34444;-83
2023/10/16 09:23:16;;;;;;;;;;;;;;;11.76;47.20;101083.88;5492309;32;34262;-77
2023/10/16 09:26:22;;;;;;;;;;;;;;;11.84;46.31;101088.91;5466518;32;33448;-78
2023/10/16 09:29:29;;;;;;;;;;;;;;;10.71;48.74;101084.50;5495438;32;34635;-86
2023/10/16 09:32:40;;;;;;;;;;;;;;;11.14;47.15;101091.97;5486768;32;34585;-81
2023/10/16 09:35:45;;;;;;;;;;;;;;;10.32;48.04;101066.31;5496670;32;35489;-88
2023/10/16 09:38:56;;;;;;;;;;;;;;;10.50;48.24;101084.22;5490811;32;34827;-81
2023/10/16 09:42:00;;;;;;;;;;;;;;;11.29;47.05;101081.00;5480865;32;35324;-78
2023/10/16 09:45:09;;;;;;;;;;;;;;;12.10;45.68;101064.31;5472283;32;34307;-84
2023/10/16 09:48:19;;;;;;;;;;;;;;;11.63;47.02;101059.72;5463185;32;34251;-79
2023/10/16 09:51:21;;;;;;;;;;;;;;;11.81;46.49;101045.12;5477344;32;32487;-80
2023/10/16 09:54:27;;;;;;;;;;;;;;;11.33;46.82;101058.06;5488404;32;34209;-83
2023/10/16 09:57:31;;;;;;;;;;;;;;;11.41;47.16;101048.19;5485974;32;31761;-83
2023/10/16 10:00:33;;;;;;;;;;;;;;;12.36;45.61;101042.31;5474651;32;34776;-80
2023/10/16 10:03:36;;;;;;;;;;;;;;;12.19;45.28;101046.44;5473171;32;34880;-82
2023/10/16 10:06:39;;;;;;;;;;;;;;;13.11;42.22;101039.50;5492759;32;34321;-83
2023/10/16 10:09:42;;;;;;;;;;;;;;;16.64;36.46;101023.94;5471234;32;34216;-86
2023/10/16 10:12:47;;;;;;;;;;;;;;;14.93;38.66;101029.94;5477970;32;34651;-78
2023/10/16 10:15:52;;;;;;;;;;;;;;;14.36;38.87;101021.94;5476515;32;36580;-81
2023/10/16 10:19:01;;;;;;;;;;;;;;;14.74;38.69;101018.50;5475968;32;35500;-84
2023/10/16 10:22:06;;;;;;;;;;;;;;;14.08;38.83;101030.22;5462486;32;34202;-83
2023/10/16 10:25:16;;;;;;;;;;;;;;;14.39;37.32;101023.56;5476070;32;34246;-84
2023/10/16 10:28:28;;;;;;;;;;;;;;;14.15;37.74;101029.94;5490607;32;35405;-82
2023/10/16 10:31:31;;;;;;;;;;;;;;;15.12;36.11;101017.53;5487888;32;32735;-84
2023/10/16 10:34:33;;;;;;;;;;;;;;;14.64;37.64;101012.78;5489152;32;34188;-81
2023/10/16 10:37:44;;;;;;;;;;;;;;;15.72;35.87;101011.16;5495103;32;34996;-82
2023/10/16 10:41:05;;;;;;;;;;;;;;;16.13;35.12;100999.25;5476656;32;34169;-86
2023/10/16 10:44:09;;;;;;;;;;;;;;;15.88;36.16;100996.16;5493481;32;33494;-78
2023/10/16 10:47:20;;;;;;;;;;;;;;;15.65;35.63;100984.09;5476792;32;33972;-79
2023/10/16 10:50:25;;;;;;;;;;;;;;;15.09;36.19;100999.16;5491708;32;35058;-80
2023/10/16 10:53:28;;;;;;;;;;;;;;;14.95;36.01;100983.09;5489662;32;34867;-79
2023/10/16 10:56:50;;;;;;;;;;;;;;;14.59;37.50;100985.69;5489420;32;37006;-78
2023/10/16 11:00:22;;;;;;;;;;;;;;;14.55;36.92;100986.72;5483604;32;35297;-81
2023/10/16 11:03:41;;;;;;;;;;;;;;;15.73;35.66;100968.66;5480951;32;35492;-81
2023/10/16 11:06:49;;;;;;;;;;;;;;;17.14;32.61;100964.56;5486353;32;34035;-82
2023/10/16 11:09:57;;;;;;;;;;;;;;;14.48;36.64;100965.00;5487789;32;34232;-78
2023/10/16 11:13:03;;;;;;;;;;;;;;;15.09;36.05;100956.81;5484702;32;33722;-80
2023/10/16 11:16:08;;;;;;;;;;;;;;;14.88;36.03;100942.84;5473736;32;34274;-79
2023/10/16 11:19:10;;;;;;;;;;;;;;;16.13;34.24;100948.87;5485082;32;34192;-80
2023/10/16 11:22:19;;;;;;;;;;;;;;;17.91;31.46;100936.16;5489898;32;35479;-81
2023/10/16 11:25:21;;;;;;;;;;;;;;;18.68;30.33;100930.44;5487205;32;35391;-79
2023/10/16 11:28:31;;;;;;;;;;;;;;;18.64;30.15;100935.06;5470180;32;35757;-78
2023/10/16 11:31:40;;;;;;;;;;;;;;;19.08;29.35;100936.69;5487263;32;34055;-79
2023/10/16 11:34:44;;;;;;;;;;;;;;;17.14;32.22;100942.47;5471898;32;34399;-83
2023/10/16 11:37:50;;;;;;;;;;;;;;;16.32;33.34;100935.50;5486393;32;34366;-81
2023/10/16 11:40:53;;;;;;;;;;;;;;;15.17;35.65;100949.34;5456470;32;34099;-83
2023/10/16 11:43:55;;;;;;;;;;;;;;;15.39;35.55;100940.31;5484704;32;35488;-80
2023/10/16 11:47:00;;;;;;;;;;;;;;;15.02;36.13;100928.06;5489209;32;33713;-80
2023/10/16 11:50:08;;;;;;;;;;;;;;;14.71;36.76;100931.34;5458003;32;33710;-81
2023/10/16 11:53:10;;;;;;;;;;;;;;;14.82;36.13;100944.91;5487002;32;35414;-80
2023/10/16 11:56:18;;;;;;;;;;;;;;;15.61;34.18;100933.03;5487946;32;34727;-81
2023/10/16 11:59:21;;;;;;;;;;;;;;;15.52;34.50;100930.84;5467595;32;35297;-78
2023/10/16 12:02:29;;;;;;;;;;;;;;;15.00;35.84;100938.72;5471170;32;35897;-83
2023/10/16 12:05:37;;;;;;;;;;;;;;;15.72;34.76;100931.66;5483757;32;34153;-83
2023/10/16 12:08:41;;;;;;;;;;;;;;;16.23;33.38;100936.84;5475078;32;34776;-83
2023/10/16 12:11:43;;;;;;;;;;;;;;;16.95;31.77;100924.06;5486130;32;34671;-82
2023/10/16 12:14:48;;;;;;;;;;;;;;;16.38;33.01;100921.03;5487786;32;35133;-80
2023/10/16 12:17:53;;;;;;;;;;;;;;;17.21;31.21;100910.12;5484540;32;35812;-83
2023/10/16 12:21:04;;;;;;;;;;;;;;;16.12;33.12;100903.88;5471861;32;32749;-79
2023/10/16 12:24:07;;;;;;;;;;;;;;;15.77;33.36;100914.56;5490948;32;35750;-83
2023/10/16 12:27:10;;;;;;;;;;;;;;;15.93;33.12;100918.13;5459153;32;34331;-79
2023/10/16 12:30:15;;;;;;;;;;;;;;;15.41;33.69;100919.94;5488679;32;33973;-81
2023/10/16 12:33:17;;;;;;;;;;;;;;;16.02;32.75;100911.47;5493694;32;34336;-78
2023/10/16 12:36:20;;;;;;;;;;;;;;;16.14;32.83;100921.41;5488828;32;35977;-80
2023/10/16 12:39:25;;;;;;;;;;;;;;;18.33;29.50;100906.03;5491801;32;34665;-82
2023/10/16 12:42:27;;;;;;;;;;;;;;;17.40;30.92;100906.41;5488444;32;33883;-78
2023/10/16 12:45:34;;;;;;;;;;;;;;;17.45;30.52;100902.53;5473832;32;35398;-78
2023/10/16 12:48:37;;;;;;;;;;;;;;;17.96;28.52;100899.47;5486132;32;36381;-77
2023/10/16 12:51:40;;;;;;;;;;;;;;;19.43;27.39;100894.34;5489681;32;33922;-80
2023/10/16 12:54:45;;;;;;;;;;;;;;;17.90;28.81;100902.50;5487590;32;34826;-80
2023/10/16 12:57:48;;;;;;;;;;;;;;;17.68;30.05;100892.31;5475464;32;34803;-79
2023/10/16 13:00:51;;;;;;;;;;;;;;;21.51;25.07;100890.03;5470821;32;33876;-77
2023/10/16 13:03:59;;;;;;;;;;;;;;;18.76;27.53;100908.63;5487756;32;35310;-81
2023/10/16 13:07:02;;;;;;;;;;;;;;;18.12;28.71;100897.59;5492108;32;33951;-83
2023/10/16 13:10:08;;;;;;;;;;;;;;;23.71;22.52;100877.44;5486547;32;34258;-85
2023/10/16 13:13:11;;;;;;;;;;;;;;;22.93;22.74;100883.19;5492100;32;35437;-90
2023/10/16 13:16:24;;;;;;;;;;;;;;;25.69;19.93;100868.44;5480969;32;35130;-79
2023/10/16 13:19:29;;;;;;;;;;;;;;;27.47;17.92;100858.00;5492716;32;34390;-79
2023/10/16 13:22:32;;;;;;;;;;;;;;;27.10;18.14;100869.00;5491438;32;34145;-80
2023/10/16 13:25:35;;;;;;;;;;;;;;;29.26;16.50;100873.25;5488499;32;35530;-79
2023/10/16 13:28:41;;;;;;;;;;;;;;;29.27;15.76;100869.50;5490107;32;33968;-83
2023/10/16 13:31:46;;;;;;;;;;;;;;;29.89;15.52;100856.25;5475921;32;35515;-80
2023/10/16 13:34:50;;;;;;;;;;;;;;;26.84;18.30;100866.19;5485661;32;35568;-82
2023/10/16 13:37:58;;;;;;;;;;;;;;;26.23;18.24;100861.47;5485551;32;34073;-82
2023/10/16 13:41:06;;;;;;;;;;;;;;;29.44;15.49;100854.97;5474718;32;34832;-79
2023/10/16 13:44:09;;;;;;;;;;;;;;;25.63;18.22;100863.63;5474449;32;32745;-79
2023/10/16 13:47:13;;;;;;;;;;;;;;;24.08;19.42;100868.00;5487081;32;34326;-78
2023/10/16 13:50:16;;;;;;;;;;;;;;;25.02;18.95;100862.12;5472652;32;33882;-79
2023/10/16 13:53:19;;;;;;;;;;;;;;;24.48;19.62;100859.97;5490229;32;34029;-83
2023/10/16 13:56:25;;;;;;;;;;;;;;;20.78;22.75;100882.16;5486328;32;35266;-77
2023/10/16 13:59:27;;;;;;;;;;;;;;;18.41;25.68;100887.75;5485655;32;34176;-77
2023/10/16 14:02:34;;;;;;;;;;;;;;;19.29;25.24;100880.25;5484432;32;34902;-80
2023/10/16 14:05:44;;;;;;;;;;;;;;;17.28;27.50;100878.75;5488659;32;34938;-79
2023/10/16 14:08:48;;;;;;;;;;;;;;;16.15;28.99;100885.16;5472718;32;34180;-79
2023/10/16 14:11:51;;;;;;;;;;;;;;;15.67;30.53;100877.09;5490360;32;34535;-77
2023/10/16 14:14:53;;;;;;;;;;;;;;;16.17;29.65;100878.84;5472400;32;34558;-78
2023/10/16 14:17:57;;;;;;;;;;;;;;;14.80;32.08;100870.87;5487352;32;33949;-80
2023/10/16 14:21:06;;;;;;;;;;;;;;;15.11;31.99;100869.38;5485480;32;34059;-78
2023/10/16 14:24:08;;;;;;;;;;;;;;;14.90;32.47;100873.94;5471230;32;33882;-80
2023/10/16 14:27:14;;;;;;;;;;;;;;;14.43;32.88;100871.78;5489384;32;35038;-78
2023/10/16 14:30:17;;;;;;;;;;;;;;;14.55;32.93;100865.06;5468383;32;33620;-83
2023/10/16 14:33:35;;;;;;;;;;;;;;;14.04;34.20;100878.00;5486857;32;34126;-79
2023/10/16 14:36:38;;;;;;;;;;;;;;;14.36;33.87;100875.62;5488041;32;34980;-77
2023/10/16 14:39:46;;;;;;;;;;;;;;;13.70;34.77;100877.78;5473907;32;33873;-83
2023/10/16 14:42:47;;;;;;;;;;;;;;;14.21;34.66;100879.00;5483835;32;35337;-79
2023/10/16 14:45:53;;;;;;;;;;;;;;;15.30;33.25;100870.16;5472105;32;34115;-84
2023/10/16 14:48:56;;;;;;;;;;;;;;;15.35;32.85;100864.63;5487985;32;34183;-77
2023/10/16 14:51:58;;;;;;;;;;;;;;;15.22;33.39;100863.53;5486385;32;34902;-78
2023/10/16 14:55:02;;;;;;;;;;;;;;;14.87;34.53;100869.62;5481051;32;34407;-77
2023/10/16 14:58:05;;;;;;;;;;;;;;;14.18;35.52;100871.22;5489724;32;34154;-76
2023/10/16 15:01:27;;;;;;;;;;;;;;;14.58;35.19;100860.50;5483798;32;34260;-76
2023/10/16 15:04:30;;;;;;;;;;;;;;;14.24;34.88;100863.84;5486882;32;36030;-78
2023/10/16 15:07:33;;;;;;;;;;;;;;;14.54;34.97;100866.84;5488336;32;34049;-79
2023/10/16 15:10:36;;;;;;;;;;;;;;;14.42;35.30;100869.19;5486385;32;35786;-80
2023/10/16 15:13:51;;;;;;;;;;;;;;;15.20;34.41;100863.63;5462440;32;34021;-78
2023/10/16 15:16:55;;;;;;;;;;;;;;;15.13;33.96;100863.06;5486481;32;32467;-78
2023/10/16 15:19:57;;;;;;;;;;;;;;;13.54;36.36;100867.03;5474703;32;34001;-81
2023/10/16 15:23:00;;;;;;;;;;;;;;;13.92;35.65;100864.47;5489096;32;35372;-77
2023/10/16 15:26:03;;;;;;;;;;;;;;;14.40;35.31;100856.03;5473889;32;34149;-77
2023/10/16 15:29:05;;;;;;;;;;;;;;;13.63;36.48;100863.97;5489997;32;34095;-77
2023/10/16 15:32:07;;;;;;;;;;;;;;;14.19;35.38;100865.00;5486058;32;34397;-78
2023/10/16 15:35:10;;;;;;;;;;;;;;;14.27;34.84;100865.47;5490111;32;33982;-77
2023/10/16 15:38:12;;;;;;;;;;;;;;;14.01;35.52;100879.91;5488104;32;34095;-79
2023/10/16 15:41:15;;;;;;;;;;;;;;;14.09;35.29;100883.91;5482051;32;34757;-78
2023/10/16 15:44:22;;;;;;;;;;;;;;;14.77;34.09;100878.13;5458697;32;35454;-77
2023/10/16 15:47:26;;;;;;;;;;;;;;;14.83;34.10;100885.78;5486309;32;35569;-78
2023/10/16 15:50:31;;;;;;;;;;;;;;;14.41;35.24;100884.19;5471384;32;35756;-78
2023/10/16 15:53:33;;;;;;;;;;;;;;;13.56;36.75;100888.94;5468753;32;34308;-79
2023/10/16 15:56:35;;;;;;;;;;;;;;;14.05;35.76;100890.28;5483005;32;35555;-80
2023/10/16 15:59:37;;;;;;;;;;;;;;;14.20;36.10;100882.56;5492937;32;35488;-79
2023/10/16 16:02:39;;;;;;;;;;;;;;;14.02;36.10;100887.75;5497201;32;35368;-78
2023/10/16 16:05:41;;;;;;;;;;;;;;;13.97;36.66;100891.53;5472662;32;34235;-79
2023/10/16 16:08:44;;;;;;;;;;;;;;;14.59;35.79;100893.09;5499356;32;34230;-78
2023/10/16 16:11:47;;;;;;;;;;;;;;;14.39;36.33;100882.56;5500579;32;34294;-78
2023/10/16 16:14:49;;;;;;;;;;;;;;;14.44;36.49;100891.16;5455043;32;988062;-78
2023/10/16 16:17:51;;;;;;;;;;;;;;;14.32;36.79;100892.56;5479465;32;35202;-78
2023/10/16 16:20:54;;;;;;;;;;;;;;;14.48;36.52;100898.88;5495485;32;34182;-78
2023/10/16 16:23:58;;;;;;;;;;;;;;;13.64;38.28;100897.38;5502171;32;33962;-77
2023/10/16 16:27:00;;;;;;;;;;;;;;;14.30;37.36;100891.81;5487496;32;34413;-77
2023/10/16 16:30:04;;;;;;;;;;;;;;;13.96;37.98;100903.88;5502731;32;34491;-78
2023/10/16 16:33:06;;;;;;;;;;;;;;;13.96;37.59;100900.38;5504559;32;34543;-76
2023/10/16 16:36:11;;;;;;;;;;;;;;;14.38;36.59;100894.06;5501463;32;35241;-78
2023/10/16 16:39:18;;;;;;;;;;;;;;;14.32;36.60;100901.37;5500462;32;35222;-78
2023/10/16 16:42:20;;;;;;;;;;;;;;;13.65;38.32;100914.09;5501791;32;34123;-78
2023/10/16 16:45:23;;;;;;;;;;;;;;;14.21;37.41;100911.56;5500676;32;35663;-80
2023/10/16 16:48:25;;;;;;;;;;;;;;;13.55;38.70;100909.22;5506533;32;33737;-78
2023/10/16 16:51:29;;;;;;;;;;;;;;;13.60;38.27;100905.53;5498509;32;35712;-78
2023/10/16 16:54:31;;;;;;;;;;;;;;;13.04;39.41;100920.16;5502363;32;35924;-78
2023/10/16 16:57:34;;;;;;;;;;;;;;;12.58;40.10;100902.66;5485063;32;34245;-78
2023/10/16 17:00:37;;;;;;;;;;;;;;;13.10;39.37;100919.03;5487882;32;35305;-77
2023/10/16 17:03:40;;;;;;;;;;;;;;;13.07;39.25;100921.78;5502909;32;33953;-77
2023/10/16 17:06:43;;;;;;;;;;;;;;;13.23;39.37;100915.00;5494353;32;33975;-78
2023/10/16 17:09:51;;;;;;;;;;;;;;;13.34;39.61;100920.69;5500977;32;34307;-76
2023/10/16 17:13:14;;;;;;;;;;;;;;;13.44;39.24;100916.72;5477936;32;35495;-76
2023/10/16 17:16:34;;;;;;;;;;;;;;;13.31;39.24;100912.91;5476765;32;34076;-77
2023/10/16 17:19:54;;;;;;;;;;;;;;;12.96;40.08;100917.81;5490692;32;33456;-76
2023/10/16 17:23:37;;;;;;;;;;;;;;;13.30;39.98;100921.75;5491903;32;34130;-76
2023/10/16 17:26:45;;;;;;;;;;;;;;;13.06;40.97;100926.22;5485266;32;35294;-77
2023/10/16 17:29:48;;;;;;;;;;;;;;;13.45;40.36;100915.81;5501027;32;34226;-76
2023/10/16 17:32:50;;;;;;;;;;;;;;;13.62;39.79;100925.66;5491258;32;35348;-76